Time;durP1;ratioP1;P1;durP2;ratioP2;P2;SDS_P1;SDS_P2;PMS_P1;PMS_P2;Temp;Humidity;BMP_temperature;BMP_pressure;BME280_temperature;BME280_humidity;BME280_pressure;Samples;Min_cycle;Max_cycle;Signal;HPM_P1;HPM_P2
2023/05/15 00:01:31;;;;;;;0.10;0.10;;;;;;;;;;5046024;28;20526;-77
2023/05/15 00:03:57;;;;;;;0.10;0.10;;;;;;;;;;5061149;28;20041;-77
2023/05/15 00:06:24;;;;;;;0.20;0.20;;;;;;;;;;5044442;28;20061;-77
2023/05/15 00:08:50;;;;;;;0.43;0.43;;;;;;;;;;5025015;28;20053;-78
2023/05/15 00:11:17;;;;;;;0.95;0.73;;;;;;;;;;5027473;28;20049;-79
2023/05/15 00:13:43;;;;;;;0.10;0.10;;;;;;;;;;5046964;28;20117;-78
2023/05/15 00:16:09;;;;;;;0.10;0.10;;;;;;;;;;5043115;28;20060;-77
2023/05/15 00:18:36;;;;;;;0.10;0.10;;;;;;;;;;5043949;28;20054;-79
2023/05/15 00:21:05;;;;;;;0.10;0.10;;;;;;;;;;5044657;28;20061;-79
2023/05/15 00:23:31;;;;;;;0.10;0.10;;;;;;;;;;5049235;28;20108;-78
2023/05/15 00:25:58;;;;;;;0.22;0.20;;;;;;;;;;5047227;28;20068;-78
2023/05/15 00:28:24;;;;;;;0.10;0.10;;;;;;;;;;5044395;28;20056;-78
2023/05/15 00:30:51;;;;;;;0.10;0.10;;;;;;;;;;5045196;28;20064;-78
2023/05/15 00:33:17;;;;;;;0.30;0.30;;;;;;;;;;5044686;28;20053;-79
2023/05/15 00:35:44;;;;;;;0.10;0.10;;;;;;;;;;5043394;28;20053;-79
2023/05/15 00:38:10;;;;;;;1.95;1.85;;;;;;;;;;5049286;28;20037;-78
2023/05/15 00:40:37;;;;;;;0.10;0.10;;;;;;;;;;5059741;28;20060;-77
2023/05/15 00:43:04;;;;;;;0.20;0.20;;;;;;;;;;5043312;28;20068;-79
2023/05/15 00:45:31;;;;;;;0.90;0.28;;;;;;;;;;5045494;28;20089;-78
2023/05/15 00:47:59;;;;;;;0.10;0.10;;;;;;;;;;5030815;28;20631;-79
2023/05/15 00:50:26;;;;;;;0.10;0.10;;;;;;;;;;5040349;28;20057;-78
2023/05/15 00:52:54;;;;;;;0.35;0.30;;;;;;;;;;5045508;28;20061;-77
2023/05/15 00:55:20;;;;;;;0.20;0.20;;;;;;;;;;5051439;28;20049;-78
2023/05/15 00:57:47;;;;;;;0.10;0.10;;;;;;;;;;5025490;28;20104;-78
2023/05/15 01:00:15;;;;;;;0.13;0.13;;;;;;;;;;5053886;28;20038;-77
2023/05/15 01:02:42;;;;;;;0.10;0.10;;;;;;;;;;5044195;28;20116;-78
2023/05/15 01:05:09;;;;;;;0.10;0.10;;;;;;;;;;5050450;28;20054;-77
2023/05/15 01:07:39;;;;;;;0.10;0.10;;;;;;;;;;5043411;28;20049;-79
2023/05/15 01:10:06;;;;;;;0.10;0.10;;;;;;;;;;5041213;28;20067;-78
2023/05/15 01:12:33;;;;;;;0.10;0.10;;;;;;;;;;5042991;28;20057;-78
2023/05/15 01:14:59;;;;;;;0.10;0.10;;;;;;;;;;5044087;28;20060;-77
2023/05/15 01:17:26;;;;;;;0.10;0.10;;;;;;;;;;5045210;28;20129;-78
2023/05/15 01:19:53;;;;;;;0.10;0.10;;;;;;;;;;5044427;28;20054;-77
2023/05/15 01:22:38;;;;;;;0.10;0.10;;;;;;;;;;5042262;28;20080;-78
2023/05/15 01:25:23;;;;;;;3.22;0.68;;;;;;;;;;5058881;28;20072;-77
2023/05/15 01:27:51;;;;;;;0.17;0.17;;;;;;;;;;5049820;28;20576;-77
2023/05/15 01:30:44;;;;;;;0.10;0.10;;;;;;;;;;5063762;28;20620;-76
2023/05/15 01:33:15;;;;;;;0.52;0.52;;;;;;;;;;5040007;28;20065;-79
2023/05/15 01:35:48;;;;;;;0.50;0.50;;;;;;;;;;5044397;28;20057;-79
2023/05/15 01:38:22;;;;;;;0.57;0.57;;;;;;;;;;5039607;28;20512;-78
2023/05/15 01:40:55;;;;;;;0.15;0.10;;;;;;;;;;5053542;28;20055;-77
2023/05/15 01:43:23;;;;;;;0.10;0.10;;;;;;;;;;5043883;28;20057;-79
2023/05/15 01:45:50;;;;;;;0.10;0.10;;;;;;;;;;5042702;28;20557;-80
2023/05/15 01:48:18;;;;;;;0.20;0.20;;;;;;;;;;5042725;28;20161;-79
2023/05/15 01:50:44;;;;;;;0.38;0.38;;;;;;;;;;5044417;28;20048;-78
2023/05/15 01:53:11;;;;;;;0.20;0.20;;;;;;;;;;5043102;28;20050;-79
2023/05/15 01:55:37;;;;;;;0.10;0.10;;;;;;;;;;5048406;28;20049;-78
2023/05/15 01:58:04;;;;;;;0.10;0.10;;;;;;;;;;5057468;28;20057;-79
2023/05/15 02:00:31;;;;;;;0.15;0.15;;;;;;;;;;5050665;28;20438;-77
2023/05/15 02:02:58;;;;;;;0.10;0.10;;;;;;;;;;5030648;28;20105;-78
2023/05/15 02:05:25;;;;;;;0.10;0.10;;;;;;;;;;5055881;28;20953;-78
2023/05/15 02:07:52;;;;;;;0.10;0.10;;;;;;;;;;5041995;28;20053;-78
2023/05/15 02:10:19;;;;;;;0.10;0.10;;;;;;;;;;5041727;28;20057;-78
2023/05/15 02:12:46;;;;;;;0.15;0.15;;;;;;;;;;5047531;28;20049;-78
2023/05/15 02:15:13;;;;;;;0.10;0.10;;;;;;;;;;5031401;28;20057;-78
2023/05/15 02:17:39;;;;;;;0.30;0.30;;;;;;;;;;5045873;28;20052;-81
2023/05/15 02:20:07;;;;;;;0.63;0.63;;;;;;;;;;5028819;28;20054;-78
2023/05/15 02:22:33;;;;;;;0.10;0.10;;;;;;;;;;5048211;28;20900;-78
2023/05/15 02:24:59;;;;;;;0.30;0.30;;;;;;;;;;5061988;28;20053;-78
2023/05/15 02:27:27;;;;;;;0.28;0.25;;;;;;;;;;5046175;28;20057;-77
2023/05/15 02:30:19;;;;;;;0.10;0.10;;;;;;;;;;5049617;28;20049;-78
2023/05/15 02:32:45;;;;;;;1.85;0.40;;;;;;;;;;5034396;28;20593;-77
2023/05/15 02:35:31;;;;;;;0.10;0.10;;;;;;;;;;5045523;28;20558;-79
2023/05/15 02:37:59;;;;;;;0.10;0.10;;;;;;;;;;5043417;28;20053;-77
2023/05/15 02:40:26;;;;;;;3.00;1.30;;;;;;;;;;5041114;28;20176;-79
2023/05/15 02:42:53;;;;;;;0.95;0.38;;;;;;;;;;5043519;28;20148;-78
2023/05/15 02:45:20;;;;;;;0.10;0.10;;;;;;;;;;5044459;28;20144;-76
2023/05/15 02:47:49;;;;;;;2.20;0.90;;;;;;;;;;5056662;28;21028;-79
2023/05/15 02:50:16;;;;;;;0.28;0.28;;;;;;;;;;5047072;28;20057;-80
2023/05/15 02:52:44;;;;;;;0.10;0.10;;;;;;;;;;5050142;28;20089;-77
2023/05/15 02:55:11;;;;;;;0.10;0.10;;;;;;;;;;5027809;28;20136;-77
2023/05/15 02:57:37;;;;;;;0.10;0.10;;;;;;;;;;5044928;28;20056;-78
2023/05/15 03:00:09;;;;;;;0.10;0.10;;;;;;;;;;5047844;28;20060;-77
2023/05/15 03:02:35;;;;;;;0.40;0.40;;;;;;;;;;5041381;28;20054;-78
2023/05/15 03:05:02;;;;;;;0.15;0.15;;;;;;;;;;5047005;28;20128;-78
2023/05/15 03:07:28;;;;;;;0.10;0.10;;;;;;;;;;5047780;28;20058;-77
2023/05/15 03:09:55;;;;;;;0.10;0.10;;;;;;;;;;5051379;28;20104;-77
2023/05/15 03:12:21;;;;;;;0.10;0.10;;;;;;;;;;5046974;28;20057;-78
2023/05/15 03:14:47;;;;;;;0.30;0.30;;;;;;;;;;5043983;28;20057;-77
2023/05/15 03:17:14;;;;;;;0.20;0.20;;;;;;;;;;5046522;28;20566;-78
2023/05/15 03:19:43;;;;;;;0.20;0.20;;;;;;;;;;5043416;28;20084;-78
2023/05/15 03:22:11;;;;;;;0.77;0.68;;;;;;;;;;5043662;28;20522;-78
2023/05/15 03:24:40;;;;;;;0.10;0.10;;;;;;;;;;5036499;28;20420;-77
2023/05/15 03:27:06;;;;;;;1.50;0.68;;;;;;;;;;5045301;28;20146;-79
2023/05/15 03:29:33;;;;;;;0.20;0.20;;;;;;;;;;5051868;28;20080;-78
2023/05/15 03:31:59;;;;;;;0.10;0.10;;;;;;;;;;5058679;28;20038;-78
2023/05/15 03:34:25;;;;;;;0.10;0.10;;;;;;;;;;5050170;28;20080;-78
2023/05/15 03:36:52;;;;;;;0.20;0.20;;;;;;;;;;5047425;28;20141;-77
2023/05/15 03:39:21;;;;;;;0.10;0.10;;;;;;;;;;5045158;28;20061;-79
2023/05/15 03:41:47;;;;;;;0.55;0.38;;;;;;;;;;5045684;28;20053;-78
2023/05/15 03:44:13;;;;;;;0.55;0.55;;;;;;;;;;5042580;28;20057;-78
2023/05/15 03:46:40;;;;;;;0.30;0.30;;;;;;;;;;5042163;28;20108;-79
2023/05/15 03:49:08;;;;;;;1.80;0.40;;;;;;;;;;5043889;28;20148;-78
2023/05/15 03:51:35;;;;;;;0.20;0.20;;;;;;;;;;5043897;28;20054;-77
2023/05/15 03:54:04;;;;;;;0.10;0.10;;;;;;;;;;5053346;28;20048;-78
2023/05/15 03:56:31;;;;;;;0.43;0.43;;;;;;;;;;5051985;28;20107;-79
2023/05/15 03:59:00;;;;;;;0.10;0.10;;;;;;;;;;5044403;28;20064;-80
2023/05/15 04:01:29;;;;;;;0.13;0.13;;;;;;;;;;5043382;28;20076;-77
2023/05/15 04:03:56;;;;;;;0.13;0.13;;;;;;;;;;5045841;28;20605;-79
2023/05/15 04:06:22;;;;;;;0.13;0.13;;;;;;;;;;5047740;28;20049;-78
2023/05/15 04:08:49;;;;;;;0.10;0.10;;;;;;;;;;5044527;28;20058;-78
2023/05/15 04:11:18;;;;;;;0.10;0.10;;;;;;;;;;5046014;28;20873;-78
2023/05/15 04:13:45;;;;;;;0.20;0.20;;;;;;;;;;5028061;28;20053;-78
2023/05/15 04:16:11;;;;;;;0.10;0.10;;;;;;;;;;5046673;28;20145;-79
2023/05/15 04:18:38;;;;;;;0.10;0.10;;;;;;;;;;5045461;28;20721;-78
2023/05/15 04:21:05;;;;;;;0.30;0.30;;;;;;;;;;5050056;28;20057;-77
2023/05/15 04:23:31;;;;;;;0.55;0.52;;;;;;;;;;5048174;28;20049;-78
2023/05/15 04:26:01;;;;;;;0.10;0.10;;;;;;;;;;5039947;28;20132;-79
2023/05/15 04:28:27;;;;;;;0.20;0.20;;;;;;;;;;5043839;28;20057;-78
2023/05/15 04:30:57;;;;;;;0.10;0.10;;;;;;;;;;5053356;28;20049;-77
2023/05/15 04:33:24;;;;;;;0.20;0.20;;;;;;;;;;5054221;28;20607;-79
2023/05/15 04:35:51;;;;;;;0.10;0.10;;;;;;;;;;5048243;28;20064;-78
2023/05/15 04:38:17;;;;;;;1.55;1.15;;;;;;;;;;5045080;28;20060;-76
2023/05/15 04:40:44;;;;;;;1.38;0.75;;;;;;;;;;5046092;28;20432;-78
2023/05/15 04:43:10;;;;;;;0.30;0.30;;;;;;;;;;5043290;28;20260;-78
2023/05/15 04:45:37;;;;;;;0.35;0.32;;;;;;;;;;5048034;28;20056;-77
2023/05/15 04:48:03;;;;;;;0.20;0.20;;;;;;;;;;5055029;28;20053;-77
2023/05/15 04:50:30;;;;;;;0.40;0.40;;;;;;;;;;5057893;28;20068;-78
2023/05/15 04:52:56;;;;;;;0.20;0.20;;;;;;;;;;5032866;28;20049;-78
2023/05/15 04:55:23;;;;;;;1.75;1.55;;;;;;;;;;5047022;28;20057;-78
2023/05/15 04:57:50;;;;;;;0.10;0.10;;;;;;;;;;5047921;28;20056;-81
2023/05/15 05:00:16;;;;;;;0.63;0.63;;;;;;;;;;5044674;28;20042;-78
2023/05/15 05:02:43;;;;;;;0.20;0.20;;;;;;;;;;5024644;28;20061;-78
2023/05/15 05:05:10;;;;;;;0.10;0.10;;;;;;;;;;5045619;28;20121;-77
2023/05/15 05:07:36;;;;;;;0.20;0.20;;;;;;;;;;5045505;28;20057;-78
2023/05/15 05:10:04;;;;;;;0.45;0.45;;;;;;;;;;5043091;28;20061;-78
2023/05/15 05:12:30;;;;;;;0.30;0.30;;;;;;;;;;5056914;28;20692;-78
2023/05/15 05:14:57;;;;;;;2.40;0.43;;;;;;;;;;5043412;28;20555;-80
2023/05/15 05:17:23;;;;;;;0.15;0.15;;;;;;;;;;5042193;28;20158;-78
2023/05/15 05:19:50;;;;;;;0.10;0.10;;;;;;;;;;5043019;28;20133;-78
2023/05/15 05:22:16;;;;;;;0.63;0.63;;;;;;;;;;5041093;28;20046;-78
2023/05/15 05:24:42;;;;;;;0.10;0.10;;;;;;;;;;5061731;28;20112;-78
2023/05/15 05:27:09;;;;;;;0.20;0.20;;;;;;;;;;5050882;28;20059;-77
2023/05/15 05:29:36;;;;;;;0.30;0.30;;;;;;;;;;5041328;28;20128;-78
2023/05/15 05:32:02;;;;;;;0.10;0.10;;;;;;;;;;5021865;28;20042;-78
2023/05/15 05:34:29;;;;;;;0.10;0.10;;;;;;;;;;5046130;28;20042;-78
2023/05/15 05:36:55;;;;;;;0.20;0.20;;;;;;;;;;5044534;28;20054;-80
2023/05/15 05:39:24;;;;;;;0.40;0.40;;;;;;;;;;5044094;28;20097;-78
2023/05/15 05:41:51;;;;;;;0.20;0.20;;;;;;;;;;5041613;28;20577;-80
2023/05/15 05:44:17;;;;;;;0.52;0.40;;;;;;;;;;5041493;28;20053;-78
2023/05/15 05:46:47;;;;;;;0.10;0.10;;;;;;;;;;5026203;28;20172;-78
2023/05/15 05:49:13;;;;;;;0.43;0.38;;;;;;;;;;5048648;28;20061;-78
2023/05/15 05:51:39;;;;;;;0.10;0.10;;;;;;;;;;5044971;28;20049;-77
2023/05/15 05:54:06;;;;;;;0.40;0.40;;;;;;;;;;5052874;28;20068;-77
2023/05/15 05:56:32;;;;;;;0.10;0.10;;;;;;;;;;5045042;28;20061;-78
2023/05/15 05:59:00;;;;;;;0.15;0.15;;;;;;;;;;5043292;28;20504;-78
2023/05/15 06:01:27;;;;;;;0.35;0.30;;;;;;;;;;5027570;28;20798;-78
2023/05/15 06:03:54;;;;;;;0.10;0.10;;;;;;;;;;5048801;28;20064;-78
2023/05/15 06:06:21;;;;;;;0.20;0.20;;;;;;;;;;5053565;28;21020;-78
2023/05/15 06:08:47;;;;;;;0.15;0.15;;;;;;;;;;5048220;28;20061;-78
2023/05/15 06:11:14;;;;;;;0.10;0.10;;;;;;;;;;5041943;28;20046;-78
2023/05/15 06:13:40;;;;;;;0.10;0.10;;;;;;;;;;5030795;28;20054;-78
2023/05/15 06:16:07;;;;;;;0.10;0.10;;;;;;;;;;5027625;28;20586;-78
2023/05/15 06:18:33;;;;;;;0.32;0.32;;;;;;;;;;5049590;28;20049;-80
2023/05/15 06:21:00;;;;;;;0.10;0.10;;;;;;;;;;5055906;28;20137;-78
2023/05/15 06:23:26;;;;;;;0.10;0.10;;;;;;;;;;5018544;28;20062;-78
2023/05/15 06:25:53;;;;;;;0.10;0.10;;;;;;;;;;5030300;28;20058;-78
2023/05/15 06:28:39;;;;;;;0.10;0.10;;;;;;;;;;5048183;28;20057;-77
2023/05/15 06:31:06;;;;;;;0.15;0.15;;;;;;;;;;5059720;28;20061;-77
2023/05/15 06:33:32;;;;;;;0.40;0.40;;;;;;;;;;5054874;28;20160;-78
2023/05/15 06:35:58;;;;;;;0.73;0.43;;;;;;;;;;5027223;28;20136;-78
2023/05/15 06:38:25;;;;;;;0.17;0.17;;;;;;;;;;5043645;28;20060;-79
2023/05/15 06:40:51;;;;;;;0.90;0.32;;;;;;;;;;5037082;28;20050;-77
2023/05/15 06:43:18;;;;;;;0.20;0.20;;;;;;;;;;5039490;28;20064;-79
2023/05/15 06:45:44;;;;;;;0.10;0.10;;;;;;;;;;5053757;28;20053;-78
2023/05/15 06:48:11;;;;;;;0.57;0.50;;;;;;;;;;5058477;28;20123;-77
2023/05/15 06:50:37;;;;;;;0.10;0.10;;;;;;;;;;5044337;28;20575;-80
2023/05/15 06:53:04;;;;;;;2.55;0.50;;;;;;;;;;5048989;28;21216;-78
2023/05/15 06:55:32;;;;;;;0.20;0.20;;;;;;;;;;5048722;28;20038;-77
2023/05/15 06:57:59;;;;;;;0.45;0.22;;;;;;;;;;5042688;28;20057;-78
2023/05/15 07:00:25;;;;;;;1.20;0.60;;;;;;;;;;5039606;28;20057;-79
2023/05/15 07:02:52;;;;;;;0.57;0.40;;;;;;;;;;5050302;28;20037;-78
2023/05/15 07:05:18;;;;;;;0.65;0.52;;;;;;;;;;5050512;28;20064;-78
2023/05/15 07:07:44;;;;;;;0.10;0.10;;;;;;;;;;5041635;28;20049;-77
2023/05/15 07:10:11;;;;;;;0.30;0.30;;;;;;;;;;5048860;28;20136;-78
2023/05/15 07:12:37;;;;;;;1.60;0.68;;;;;;;;;;5045374;28;20056;-77
2023/05/15 07:15:04;;;;;;;0.32;0.30;;;;;;;;;;5046040;28;20088;-79
2023/05/15 07:17:32;;;;;;;0.50;0.45;;;;;;;;;;5043937;28;20053;-78
2023/05/15 07:19:58;;;;;;;1.23;0.77;;;;;;;;;;5041865;28;20416;-78
2023/05/15 07:22:26;;;;;;;1.08;0.80;;;;;;;;;;5037693;28;20081;-79
2023/05/15 07:24:52;;;;;;;0.17;0.17;;;;;;;;;;5045206;28;20156;-78
2023/05/15 07:27:18;;;;;;;0.93;0.45;;;;;;;;;;5047690;28;20080;-79
2023/05/15 07:29:52;;;;;;;0.50;0.35;;;;;;;;;;5047377;28;20053;-78
2023/05/15 07:32:18;;;;;;;0.30;0.30;;;;;;;;;;5043232;28;20459;-75
2023/05/15 07:34:48;;;;;;;0.75;0.75;;;;;;;;;;5043950;28;20141;-76
2023/05/15 07:37:14;;;;;;;1.00;0.40;;;;;;;;;;5043406;28;20049;-76
2023/05/15 07:39:42;;;;;;;0.38;0.32;;;;;;;;;;5042192;28;20281;-76
2023/05/15 07:42:08;;;;;;;0.75;0.68;;;;;;;;;;5043731;28;20056;-76
2023/05/15 07:44:35;;;;;;;0.45;0.30;;;;;;;;;;5042813;28;20500;-77
2023/05/15 07:47:01;;;;;;;0.88;0.70;;;;;;;;;;5044278;28;20085;-76
2023/05/15 07:49:28;;;;;;;0.57;0.45;;;;;;;;;;5043781;28;20054;-76
2023/05/15 07:51:54;;;;;;;0.20;0.20;;;;;;;;;;5042725;28;20092;-75
2023/05/15 07:54:20;;;;;;;2.17;0.75;;;;;;;;;;5038134;28;20661;-76
2023/05/15 07:56:47;;;;;;;0.40;0.40;;;;;;;;;;5026604;28;20484;-76
2023/05/15 07:59:13;;;;;;;0.55;0.30;;;;;;;;;;5044302;28;20059;-76
2023/05/15 08:01:40;;;;;;;0.20;0.20;;;;;;;;;;5040537;28;20054;-76
2023/05/15 08:04:07;;;;;;;1.15;0.40;;;;;;;;;;5039182;28;20081;-73
2023/05/15 08:06:35;;;;;;;0.22;0.22;;;;;;;;;;5036166;28;20060;-74
2023/05/15 08:09:03;;;;;;;0.82;0.35;;;;;;;;;;5041073;28;20652;-74
2023/05/15 08:11:29;;;;;;;0.60;0.60;;;;;;;;;;5043400;28;20136;-74
2023/05/15 08:13:55;;;;;;;0.10;0.10;;;;;;;;;;5042956;28;20053;-74
2023/05/15 08:16:22;;;;;;;0.20;0.20;;;;;;;;;;5042015;28;20053;-74
2023/05/15 08:18:51;;;;;;;0.52;0.40;;;;;;;;;;5042285;28;20053;-74
2023/05/15 08:21:18;;;;;;;0.40;0.35;;;;;;;;;;5043952;28;20067;-74
2023/05/15 08:23:44;;;;;;;1.10;0.45;;;;;;;;;;5043226;28;20085;-73
2023/05/15 08:26:11;;;;;;;0.40;0.40;;;;;;;;;;5040033;28;20641;-75
2023/05/15 08:28:38;;;;;;;0.40;0.40;;;;;;;;;;5042000;28;20077;-75
2023/05/15 08:31:04;;;;;;;0.95;0.60;;;;;;;;;;5042455;28;20053;-76
2023/05/15 08:33:30;;;;;;;0.20;0.20;;;;;;;;;;5042552;28;20069;-75
2023/05/15 08:35:57;;;;;;;0.40;0.40;;;;;;;;;;5040684;28;20504;-74
2023/05/15 08:38:23;;;;;;;0.20;0.20;;;;;;;;;;5041804;28;20057;-74
2023/05/15 08:40:51;;;;;;;0.30;0.30;;;;;;;;;;5043032;28;20533;-75
2023/05/15 08:43:19;;;;;;;0.63;0.63;;;;;;;;;;5041313;28;20042;-75
2023/05/15 08:45:46;;;;;;;0.20;0.20;;;;;;;;;;5043384;28;20057;-75
2023/05/15 08:48:15;;;;;;;0.40;0.40;;;;;;;;;;5042612;28;20284;-75
2023/05/15 08:50:42;;;;;;;0.30;0.30;;;;;;;;;;5041858;28;20061;-74
2023/05/15 08:53:10;;;;;;;0.50;0.40;;;;;;;;;;5039741;28;20065;-74
2023/05/15 08:55:37;;;;;;;0.43;0.43;;;;;;;;;;5036085;28;20104;-75
2023/05/15 08:58:03;;;;;;;3.58;0.50;;;;;;;;;;5039692;28;20053;-76
2023/05/15 09:00:30;;;;;;;0.22;0.22;;;;;;;;;;5040698;28;20530;-76
2023/05/15 09:02:58;;;;;;;0.47;0.47;;;;;;;;;;5041652;28;20057;-73
2023/05/15 09:08:11;;;;;;;0.85;0.30;;;;;;;;;;5181786;27;20392;-76
2023/05/15 09:10:37;;;;;;;0.20;0.20;;;;;;;;;;5148719;27;20578;-76
2023/05/15 09:13:04;;;;;;;0.28;0.25;;;;;;;;;;5134419;27;20139;-76
2023/05/15 09:15:31;;;;;;;0.88;0.40;;;;;;;;;;5129896;27;20795;-76
2023/05/15 09:17:58;;;;;;;0.20;0.20;;;;;;;;;;5142526;27;20405;-77
2023/05/15 09:20:24;;;;;;;0.38;0.38;;;;;;;;;;5141952;27;20059;-76
2023/05/15 09:22:51;;;;;;;0.40;0.40;;;;;;;;;;5125904;27;20135;-76
2023/05/15 09:25:33;;;;;;;1.08;0.57;;;;;;;;;;5136692;27;20048;-76
2023/05/15 09:27:59;;;;;;;0.40;0.30;;;;;;;;;;5132560;27;20164;-74
2023/05/15 09:30:26;;;;;;;0.35;0.30;;;;;;;;;;5135142;27;20079;-76
2023/05/15 09:33:02;;;;;;;0.30;0.30;;;;;;;;;;5122808;27;20219;-76
2023/05/15 09:35:36;;;;;;;0.20;0.20;;;;;;;;;;5127645;27;20047;-76
2023/05/15 09:38:11;;;;;;;0.60;0.47;;;;;;;;;;5121906;27;20063;-76
2023/05/15 09:40:39;;;;;;;0.20;0.20;;;;;;;;;;5135384;27;20047;-76
2023/05/15 09:43:08;;;;;;;0.40;0.32;;;;;;;;;;5119296;27;20052;-76
2023/05/15 09:45:35;;;;;;;0.20;0.20;;;;;;;;;;5135056;27;20051;-76
2023/05/15 09:48:05;;;;;;;0.25;0.25;;;;;;;;;;5140199;27;20059;-76
2023/05/15 09:50:36;;;;;;;1.02;0.90;;;;;;;;;;5134619;27;20118;-77
2023/05/15 09:53:04;;;;;;;0.20;0.20;;;;;;;;;;5139441;27;20596;-77
2023/05/15 09:55:33;;;;;;;0.30;0.30;;;;;;;;;;5134820;27;20052;-77
2023/05/15 09:58:18;;;;;;;0.90;0.80;;;;;;;;;;5130584;27;20524;-77
2023/05/15 10:00:45;;;;;;;0.20;0.20;;;;;;;;;;5120547;27;20059;-77
2023/05/15 10:03:15;;;;;;;0.55;0.52;;;;;;;;;;5120212;27;20506;-77
2023/05/15 10:05:42;;;;;;;0.47;0.30;;;;;;;;;;5140230;27;20475;-77
2023/05/15 10:08:10;;;;;;;0.40;0.40;;;;;;;;;;5133326;27;20140;-77
2023/05/15 10:10:36;;;;;;;0.65;0.40;;;;;;;;;;5139531;27;20060;-77
2023/05/15 10:13:04;;;;;;;1.38;0.40;;;;;;;;;;5141255;27;20451;-77
2023/05/15 10:15:31;;;;;;;1.35;0.70;;;;;;;;;;5134845;27;20105;-77
2023/05/15 10:17:58;;;;;;;1.35;0.88;;;;;;;;;;5114311;27;20071;-76
2023/05/15 10:20:26;;;;;;;0.73;0.47;;;;;;;;;;5106163;27;20100;-77
2023/05/15 10:22:54;;;;;;;0.98;0.70;;;;;;;;;;5106275;27;20052;-77
2023/05/15 10:25:39;;;;;;;0.20;0.20;;;;;;;;;;5116598;27;20193;-77
2023/05/15 10:28:10;;;;;;;0.25;0.25;;;;;;;;;;5111656;27;20131;-77
2023/05/15 10:30:37;;;;;;;0.30;0.30;;;;;;;;;;5106325;27;20508;-76
2023/05/15 10:33:04;;;;;;;1.50;1.00;;;;;;;;;;5105658;27;20650;-76
2023/05/15 10:35:31;;;;;;;1.55;0.80;;;;;;;;;;5111609;27;20052;-76
2023/05/15 10:37:57;;;;;;;0.45;0.45;;;;;;;;;;5108832;27;20083;-77
2023/05/15 10:40:24;;;;;;;0.55;0.43;;;;;;;;;;5107424;27;20113;-77
2023/05/15 10:42:53;;;;;;;0.75;0.40;;;;;;;;;;5106420;27;20138;-76
2023/05/15 10:45:19;;;;;;;0.30;0.30;;;;;;;;;;5124577;27;20055;-76
2023/05/15 10:47:46;;;;;;;0.32;0.20;;;;;;;;;;5125840;27;20141;-76
2023/05/15 10:50:13;;;;;;;0.32;0.32;;;;;;;;;;5124942;27;20100;-76
2023/05/15 10:52:40;;;;;;;1.90;1.52;;;;;;;;;;5105316;27;20044;-76
2023/05/15 10:55:16;;;;;;;0.50;0.50;;;;;;;;;;5102767;27;20131;-76
2023/05/15 10:57:46;;;;;;;0.20;0.20;;;;;;;;;;5105898;27;20327;-76
2023/05/15 11:00:22;;;;;;;0.63;0.50;;;;;;;;;;5106363;28;20059;-75
2023/05/15 11:02:55;;;;;;;0.82;0.63;;;;;;;;;;5107891;27;20052;-76
2023/05/15 11:05:23;;;;;;;0.50;0.50;;;;;;;;;;5108534;27;20530;-76
2023/05/15 11:08:07;;;;;;;0.13;0.13;;;;;;;;;;5112157;27;20058;-76
2023/05/15 11:10:35;;;;;;;0.25;0.17;;;;;;;;;;5109872;27;20078;-76
2023/05/15 11:15:44;;;;;;;0.80;0.52;;;;;;;;;;5066131;22;20052;-77
2023/05/15 11:18:10;;;;;;;0.50;0.50;;;;;;;;;;5070978;28;20060;-77
2023/05/15 11:20:38;;;;;;;1.23;0.70;;;;;;;;;;5063002;28;20091;-77
2023/05/15 11:23:05;;;;;;;0.43;0.38;;;;;;;;;;5061089;28;20060;-76
2023/05/15 11:25:33;;;;;;;0.57;0.40;;;;;;;;;;5062767;28;20136;-76
2023/05/15 11:28:01;;;;;;;0.45;0.40;;;;;;;;;;5063170;28;20461;-76
2023/05/15 11:30:34;;;;;;;0.30;0.30;;;;;;;;;;5063063;28;20049;-76
2023/05/15 11:33:00;;;;;;;0.15;0.15;;;;;;;;;;5064252;28;20522;-76
2023/05/15 11:35:28;;;;;;;0.73;0.50;;;;;;;;;;5063772;28;20115;-77
2023/05/15 11:38:01;;;;;;;0.10;0.10;;;;;;;;;;5065723;28;20150;-77
2023/05/15 11:40:28;;;;;;;0.80;0.32;;;;;;;;;;5062705;28;20532;-77
2023/05/15 11:42:58;;;;;;;1.63;0.80;;;;;;;;;;5043988;28;20053;-77
2023/05/15 11:45:25;;;;;;;0.20;0.20;;;;;;;;;;5057889;28;20104;-76
2023/05/15 11:47:52;;;;;;;0.82;0.57;;;;;;;;;;5059468;28;20147;-77
2023/05/15 11:50:19;;;;;;;1.92;0.55;;;;;;;;;;5064435;28;20096;-77
2023/05/15 11:52:48;;;;;;;0.22;0.22;;;;;;;;;;5062651;28;20053;-76
2023/05/15 11:55:15;;;;;;;0.40;0.40;;;;;;;;;;5064579;28;20053;-77
2023/05/15 11:57:41;;;;;;;0.70;0.45;;;;;;;;;;5063416;28;20073;-76
2023/05/15 12:00:08;;;;;;;0.30;0.30;;;;;;;;;;5063537;28;20049;-77
2023/05/15 12:02:35;;;;;;;0.22;0.22;;;;;;;;;;5064510;28;20060;-77
2023/05/15 12:05:01;;;;;;;0.60;0.47;;;;;;;;;;5062224;28;20053;-76
2023/05/15 12:07:28;;;;;;;0.20;0.20;;;;;;;;;;5063343;28;20511;-77
2023/05/15 12:09:54;;;;;;;2.25;0.57;;;;;;;;;;5063780;28;20075;-77
2023/05/15 12:12:26;;;;;;;0.30;0.30;;;;;;;;;;5062758;28;20516;-77
2023/05/15 12:14:56;;;;;;;0.20;0.20;;;;;;;;;;5058087;28;20083;-76
2023/05/15 12:17:22;;;;;;;0.70;0.57;;;;;;;;;;5054377;28;20057;-77
2023/05/15 12:19:50;;;;;;;4.72;1.30;;;;;;;;;;5056893;28;20565;-77
2023/05/15 12:22:17;;;;;;;0.65;0.22;;;;;;;;;;5062006;28;20095;-77
2023/05/15 12:24:44;;;;;;;0.30;0.30;;;;;;;;;;5061978;28;20064;-75
2023/05/15 12:27:11;;;;;;;0.30;0.30;;;;;;;;;;5059730;28;20053;-78
2023/05/15 12:29:38;;;;;;;0.20;0.20;;;;;;;;;;5066023;28;20053;-79
2023/05/15 12:32:05;;;;;;;0.57;0.40;;;;;;;;;;5057796;28;20081;-77
2023/05/15 12:34:32;;;;;;;0.73;0.45;;;;;;;;;;5060512;28;20084;-77
2023/05/15 12:36:58;;;;;;;0.20;0.20;;;;;;;;;;5063212;28;20060;-76
2023/05/15 12:39:25;;;;;;;0.40;0.40;;;;;;;;;;5047199;28;20088;-77
2023/05/15 12:41:55;;;;;;;0.20;0.20;;;;;;;;;;5057805;28;20053;-77
2023/05/15 12:44:24;;;;;;;0.63;0.50;;;;;;;;;;5060084;28;20075;-77
2023/05/15 12:46:52;;;;;;;0.20;0.20;;;;;;;;;;5064030;28;20054;-77
2023/05/15 12:49:21;;;;;;;0.20;0.20;;;;;;;;;;5056211;28;20103;-77
2023/05/15 12:51:48;;;;;;;0.20;0.20;;;;;;;;;;5062546;28;20144;-77
2023/05/15 12:54:18;;;;;;;0.20;0.20;;;;;;;;;;5063508;28;20064;-76
2023/05/15 12:56:48;;;;;;;0.38;0.30;;;;;;;;;;5062105;28;20059;-77
2023/05/15 12:59:14;;;;;;;1.13;0.35;;;;;;;;;;5059747;28;20049;-77
2023/05/15 13:01:43;;;;;;;0.30;0.30;;;;;;;;;;5062502;28;20037;-76
2023/05/15 13:04:10;;;;;;;0.20;0.20;;;;;;;;;;5062133;28;20053;-77
2023/05/15 13:06:37;;;;;;;0.20;0.20;;;;;;;;;;5061762;28;20073;-76
2023/05/15 13:09:21;;;;;;;0.32;0.30;;;;;;;;;;5064186;28;20053;-76
2023/05/15 13:11:48;;;;;;;0.98;0.47;;;;;;;;;;5062497;28;20057;-76
2023/05/15 13:14:16;;;;;;;1.05;0.70;;;;;;;;;;5061957;28;20064;-78
2023/05/15 13:16:45;;;;;;;0.40;0.40;;;;;;;;;;5060935;28;20099;-76
2023/05/15 13:19:14;;;;;;;0.50;0.22;;;;;;;;;;5062451;28;20049;-76
2023/05/15 13:21:42;;;;;;;5.57;0.43;;;;;;;;;;5044935;28;20061;-77
2023/05/15 13:24:09;;;;;;;0.52;0.47;;;;;;;;;;5065188;28;20140;-76
2023/05/15 13:26:35;;;;;;;0.35;0.35;;;;;;;;;;5060311;28;20049;-76
2023/05/15 13:29:02;;;;;;;0.10;0.10;;;;;;;;;;5063027;28;20053;-76
2023/05/15 13:31:33;;;;;;;0.22;0.22;;;;;;;;;;5061262;28;20127;-76
2023/05/15 13:34:06;;;;;;;0.30;0.30;;;;;;;;;;5061643;28;20574;-77
2023/05/15 13:36:33;;;;;;;0.10;0.10;;;;;;;;;;5059776;28;20057;-77
2023/05/15 13:39:02;;;;;;;0.75;0.52;;;;;;;;;;5062419;28;20537;-77
2023/05/15 13:41:29;;;;;;;0.13;0.13;;;;;;;;;;5061071;28;20060;-77
2023/05/15 13:43:55;;;;;;;0.45;0.43;;;;;;;;;;5059919;28;20053;-78
2023/05/15 13:46:22;;;;;;;1.15;0.40;;;;;;;;;;5059308;28;20592;-77
2023/05/15 13:48:48;;;;;;;0.40;0.32;;;;;;;;;;5062726;28;20574;-77
2023/05/15 13:51:14;;;;;;;0.65;0.47;;;;;;;;;;5063079;28;20057;-77
2023/05/15 13:53:41;;;;;;;0.75;0.55;;;;;;;;;;5061081;28;20530;-77
2023/05/15 13:56:07;;;;;;;0.93;0.80;;;;;;;;;;5052932;28;20057;-77
2023/05/15 13:58:34;;;;;;;0.17;0.17;;;;;;;;;;5065672;28;20821;-77
2023/05/15 14:01:04;;;;;;;2.65;0.65;;;;;;;;;;5060276;28;20053;-78
2023/05/15 14:03:31;;;;;;;1.23;0.82;;;;;;;;;;5065959;28;20081;-77
2023/05/15 14:05:57;;;;;;;0.22;0.22;;;;;;;;;;5060470;28;20132;-77
2023/05/15 14:08:24;;;;;;;0.60;0.25;;;;;;;;;;5048215;28;20940;-77
2023/05/15 14:10:50;;;;;;;0.30;0.30;;;;;;;;;;5062432;28;20057;-77
2023/05/15 14:13:17;;;;;;;0.55;0.30;;;;;;;;;;5065113;28;20573;-76
2023/05/15 14:15:43;;;;;;;0.43;0.30;;;;;;;;;;5065191;28;20106;-77
2023/05/15 14:18:09;;;;;;;0.20;0.20;;;;;;;;;;5064508;28;20055;-78
2023/05/15 14:20:36;;;;;;;0.20;0.20;;;;;;;;;;5063014;28;20053;-78
2023/05/15 14:23:03;;;;;;;0.20;0.20;;;;;;;;;;5045281;28;20059;-77
2023/05/15 14:25:30;;;;;;;0.35;0.35;;;;;;;;;;5057789;28;20059;-77
2023/05/15 14:27:56;;;;;;;0.60;0.52;;;;;;;;;;5062406;28;20114;-76
2023/05/15 14:30:23;;;;;;;0.20;0.20;;;;;;;;;;5054508;28;20150;-77
2023/05/15 14:32:50;;;;;;;0.30;0.30;;;;;;;;;;5059024;28;20102;-78
2023/05/15 14:35:16;;;;;;;0.30;0.30;;;;;;;;;;5061603;28;21025;-78
2023/05/15 14:37:43;;;;;;;0.40;0.40;;;;;;;;;;5057152;28;20132;-76
2023/05/15 14:40:10;;;;;;;0.35;0.35;;;;;;;;;;5060226;28;20059;-77
2023/05/15 14:42:37;;;;;;;0.50;0.25;;;;;;;;;;5064084;28;20059;-77
2023/05/15 14:45:03;;;;;;;0.25;0.25;;;;;;;;;;5059784;28;20069;-77
2023/05/15 14:47:30;;;;;;;0.38;0.30;;;;;;;;;;5062235;28;20160;-76
2023/05/15 14:49:56;;;;;;;0.57;0.40;;;;;;;;;;5062835;28;20063;-77
2023/05/15 14:52:22;;;;;;;0.20;0.20;;;;;;;;;;5063461;28;20049;-77